sensor_id;sensor_type;location;lat;lon;timestamp;temperature;humidity
18882;DHT22;9573;50.948;11.600;2023-07-31T00:00:17;16.70;99.90
18882;DHT22;9573;50.948;11.600;2023-07-31T00:02:44;16.80;99.90
18882;DHT22;9573;50.948;11.600;2023-07-31T00:05:11;16.80;99.90
18882;DHT22;9573;50.948;11.600;2023-07-31T00:07:38;16.80;99.90
18882;DHT22;9573;50.948;11.600;2023-07-31T00:10:07;16.80;99.90
18882;DHT22;9573;50.948;11.600;2023-07-31T00:12:35;16.80;99.90
18882;DHT22;9573;50.948;11.600;2023-07-31T00:15:03;16.80;99.90
18882;DHT22;9573;50.948;11.600;2023-07-31T00:17:30;16.80;99.90
18882;DHT22;9573;50.948;11.600;2023-07-31T00:19:57;16.80;99.90
18882;DHT22;9573;50.948;11.600;2023-07-31T00:22:24;16.90;99.90
18882;DHT22;9573;50.948;11.600;2023-07-31T00:24:52;16.90;99.90
18882;DHT22;9573;50.948;11.600;2023-07-31T00:27:20;17.00;99.90
18882;DHT22;9573;50.948;11.600;2023-07-31T00:29:47;17.00;99.90
18882;DHT22;9573;50.948;11.600;2023-07-31T00:32:14;17.10;99.90
18882;DHT22;9573;50.948;11.600;2023-07-31T00:34:41;17.10;99.90
18882;DHT22;9573;50.948;11.600;2023-07-31T00:37:08;17.10;99.90
18882;DHT22;9573;50.948;11.600;2023-07-31T00:39:35;17.20;99.90
18882;DHT22;9573;50.948;11.600;2023-07-31T00:42:03;17.20;99.90
18882;DHT22;9573;50.948;11.600;2023-07-31T00:44:32;17.30;99.90
18882;DHT22;9573;50.948;11.600;2023-07-31T00:47:00;17.30;99.90
18882;DHT22;9573;50.948;11.600;2023-07-31T00:49:27;17.30;99.90
18882;DHT22;9573;50.948;11.600;2023-07-31T00:51:54;17.30;99.90
18882;DHT22;9573;50.948;11.600;2023-07-31T00:54:23;17.30;99.90
18882;DHT22;9573;50.948;11.600;2023-07-31T00:56:50;17.40;99.90
18882;DHT22;9573;50.948;11.600;2023-07-31T00:59:19;17.40;99.90
18882;DHT22;9573;50.948;11.600;2023-07-31T01:01:48;17.40;99.90
18882;DHT22;9573;50.948;11.600;2023-07-31T01:04:17;17.40;99.90
18882;DHT22;9573;50.948;11.600;2023-07-31T01:06:51;17.40;99.90
18882;DHT22;9573;50.948;11.600;2023-07-31T01:09:31;17.30;99.90
18882;DHT22;9573;50.948;11.600;2023-07-31T01:12:04;17.40;99.90
18882;DHT22;9573;50.948;11.600;2023-07-31T01:14:33;17.30;99.90
18882;DHT22;9573;50.948;11.600;2023-07-31T01:17:02;17.20;99.90
18882;DHT22;9573;50.948;11.600;2023-07-31T01:19:29;17.20;99.90
18882;DHT22;9573;50.948;11.600;2023-07-31T01:22:16;17.10;99.90
18882;DHT22;9573;50.948;11.600;2023-07-31T01:24:58;17.10;99.90
18882;DHT22;9573;50.948;11.600;2023-07-31T01:27:35;16.90;99.90
18882;DHT22;9573;50.948;11.600;2023-07-31T01:30:13;16.90;99.90
18882;DHT22;9573;50.948;11.600;2023-07-31T01:32:43;16.80;99.90
18882;DHT22;9573;50.948;11.600;2023-07-31T01:35:14;16.70;99.90
18882;DHT22;9573;50.948;11.600;2023-07-31T01:37:42;16.70;99.90
18882;DHT22;9573;50.948;11.600;2023-07-31T01:40:09;16.70;99.90
18882;DHT22;9573;50.948;11.600;2023-07-31T01:42:38;16.70;99.90
18882;DHT22;9573;50.948;11.600;2023-07-31T01:45:06;16.70;99.90
18882;DHT22;9573;50.948;11.600;2023-07-31T01:47:34;16.70;99.90
18882;DHT22;9573;50.948;11.600;2023-07-31T01:50:01;16.70;99.90
18882;DHT22;9573;50.948;11.600;2023-07-31T01:52:28;16.70;99.90
18882;DHT22;9573;50.948;11.600;2023-07-31T01:54:55;16.70;99.90
18882;DHT22;9573;50.948;11.600;2023-07-31T01:57:23;16.70;99.90
18882;DHT22;9573;50.948;11.600;2023-07-31T01:59:51;16.70;99.90
18882;DHT22;9573;50.948;11.600;2023-07-31T02:02:19;16.70;99.90
18882;DHT22;9573;50.948;11.600;2023-07-31T02:04:47;16.70;99.90
18882;DHT22;9573;50.948;11.600;2023-07-31T02:07:14;16.70;99.90
18882;DHT22;9573;50.948;11.600;2023-07-31T02:09:41;16.80;99.90
18882;DHT22;9573;50.948;11.600;2023-07-31T02:12:08;16.80;99.90
18882;DHT22;9573;50.948;11.600;2023-07-31T02:14:35;16.80;99.90
18882;DHT22;9573;50.948;11.600;2023-07-31T02:17:04;16.80;99.90
18882;DHT22;9573;50.948;11.600;2023-07-31T02:19:32;16.80;99.90
18882;DHT22;9573;50.948;11.600;2023-07-31T02:21:59;16.80;99.90
18882;DHT22;9573;50.948;11.600;2023-07-31T02:24:26;16.80;99.90
18882;DHT22;9573;50.948;11.600;2023-07-31T02:26:53;16.80;99.90
18882;DHT22;9573;50.948;11.600;2023-07-31T02:29:20;16.90;99.90
18882;DHT22;9573;50.948;11.600;2023-07-31T02:31:47;16.90;99.90
18882;DHT22;9573;50.948;11.600;2023-07-31T02:34:16;16.90;99.90
18882;DHT22;9573;50.948;11.600;2023-07-31T02:36:43;16.90;99.90
18882;DHT22;9573;50.948;11.600;2023-07-31T02:39:10;16.90;99.90
18882;DHT22;9573;50.948;11.600;2023-07-31T02:41:37;17.00;99.90
18882;DHT22;9573;50.948;11.600;2023-07-31T02:44:04;17.00;99.90
18882;DHT22;9573;50.948;11.600;2023-07-31T02:46:31;16.90;99.90
18882;DHT22;9573;50.948;11.600;2023-07-31T02:48:58;16.90;99.90
18882;DHT22;9573;50.948;11.600;2023-07-31T02:51:26;16.90;99.90
18882;DHT22;9573;50.948;11.600;2023-07-31T02:53:54;16.90;99.90
18882;DHT22;9573;50.948;11.600;2023-07-31T02:56:21;16.80;99.90
18882;DHT22;9573;50.948;11.600;2023-07-31T02:58:48;16.80;99.90
18882;DHT22;9573;50.948;11.600;2023-07-31T03:01:15;16.80;99.90
18882;DHT22;9573;50.948;11.600;2023-07-31T03:03:42;16.70;99.90
18882;DHT22;9573;50.948;11.600;2023-07-31T03:06:09;16.70;99.90
18882;DHT22;9573;50.948;11.600;2023-07-31T03:08:37;16.60;99.90
18882;DHT22;9573;50.948;11.600;2023-07-31T03:11:04;16.60;99.90
18882;DHT22;9573;50.948;11.600;2023-07-31T03:13:31;16.50;99.90
18882;DHT22;9573;50.948;11.600;2023-07-31T03:15:58;16.40;99.90
18882;DHT22;9573;50.948;11.600;2023-07-31T03:18:25;16.40;99.90
18882;DHT22;9573;50.948;11.600;2023-07-31T03:20:53;16.30;99.90
18882;DHT22;9573;50.948;11.600;2023-07-31T03:23:20;16.30;99.90
18882;DHT22;9573;50.948;11.600;2023-07-31T03:25:58;16.30;99.90
18882;DHT22;9573;50.948;11.600;2023-07-31T03:28:26;16.20;99.90
18882;DHT22;9573;50.948;11.600;2023-07-31T03:30:53;16.20;99.90
18882;DHT22;9573;50.948;11.600;2023-07-31T03:33:21;16.10;99.90
18882;DHT22;9573;50.948;11.600;2023-07-31T03:35:48;16.20;99.90
18882;DHT22;9573;50.948;11.600;2023-07-31T03:38:15;16.20;99.90
18882;DHT22;9573;50.948;11.600;2023-07-31T03:40:42;16.10;99.90
18882;DHT22;9573;50.948;11.600;2023-07-31T03:43:10;16.10;99.90
18882;DHT22;9573;50.948;11.600;2023-07-31T03:45:38;16.10;99.90
18882;DHT22;9573;50.948;11.600;2023-07-31T03:48:05;16.00;99.90
18882;DHT22;9573;50.948;11.600;2023-07-31T03:50:33;16.00;99.90
18882;DHT22;9573;50.948;11.600;2023-07-31T03:53:00;16.10;99.90
18882;DHT22;9573;50.948;11.600;2023-07-31T03:55:27;16.00;99.90
18882;DHT22;9573;50.948;11.600;2023-07-31T03:57:54;16.00;99.90
18882;DHT22;9573;50.948;11.600;2023-07-31T04:00:23;16.00;99.90
18882;DHT22;9573;50.948;11.600;2023-07-31T04:02:50;16.00;99.90
18882;DHT22;9573;50.948;11.600;2023-07-31T04:05:17;15.90;99.90
18882;DHT22;9573;50.948;11.600;2023-07-31T04:07:44;15.90;99.90
18882;DHT22;9573;50.948;11.600;2023-07-31T04:10:11;15.90;99.90
18882;DHT22;9573;50.948;11.600;2023-07-31T04:12:38;15.90;99.90
18882;DHT22;9573;50.948;11.600;2023-07-31T04:15:06;15.90;99.90
18882;DHT22;9573;50.948;11.600;2023-07-31T04:17:35;15.90;99.90
18882;DHT22;9573;50.948;11.600;2023-07-31T04:20:02;16.50;99.90
18882;DHT22;9573;50.948;11.600;2023-07-31T04:22:29;16.00;99.90
18882;DHT22;9573;50.948;11.600;2023-07-31T04:24:56;16.00;99.90
18882;DHT22;9573;50.948;11.600;2023-07-31T04:27:23;16.00;99.90
18882;DHT22;9573;50.948;11.600;2023-07-31T04:29:51;16.00;99.90
18882;DHT22;9573;50.948;11.600;2023-07-31T04:32:18;16.00;99.90
18882;DHT22;9573;50.948;11.600;2023-07-31T04:34:47;16.10;99.90
18882;DHT22;9573;50.948;11.600;2023-07-31T04:37:15;16.00;99.90
18882;DHT22;9573;50.948;11.600;2023-07-31T04:39:42;16.10;99.90
18882;DHT22;9573;50.948;11.600;2023-07-31T04:42:09;16.10;99.90
18882;DHT22;9573;50.948;11.600;2023-07-31T04:44:36;16.10;99.90
18882;DHT22;9573;50.948;11.600;2023-07-31T04:47:04;16.10;99.90
18882;DHT22;9573;50.948;11.600;2023-07-31T04:49:31;16.10;99.90
18882;DHT22;9573;50.948;11.600;2023-07-31T04:52:00;16.10;99.90
18882;DHT22;9573;50.948;11.600;2023-07-31T04:54:27;16.10;99.90
18882;DHT22;9573;50.948;11.600;2023-07-31T04:56:54;16.20;99.90
18882;DHT22;9573;50.948;11.600;2023-07-31T04:59:21;16.20;99.90
18882;DHT22;9573;50.948;11.600;2023-07-31T05:01:48;16.20;99.90
18882;DHT22;9573;50.948;11.600;2023-07-31T05:04:15;16.30;99.90
18882;DHT22;9573;50.948;11.600;2023-07-31T05:06:43;16.30;99.90
18882;DHT22;9573;50.948;11.600;2023-07-31T05:09:11;16.30;99.90
18882;DHT22;9573;50.948;11.600;2023-07-31T05:11:38;16.30;99.90
18882;DHT22;9573;50.948;11.600;2023-07-31T05:14:08;16.40;99.90
18882;DHT22;9573;50.948;11.600;2023-07-31T05:16:35;16.40;99.90
18882;DHT22;9573;50.948;11.600;2023-07-31T05:19:02;16.60;99.90
18882;DHT22;9573;50.948;11.600;2023-07-31T05:21:29;16.60;99.90
18882;DHT22;9573;50.948;11.600;2023-07-31T05:23:56;16.80;99.90
18882;DHT22;9573;50.948;11.600;2023-07-31T05:26:25;16.90;99.90
18882;DHT22;9573;50.948;11.600;2023-07-31T05:28:52;17.00;99.90
18882;DHT22;9573;50.948;11.600;2023-07-31T05:31:19;17.00;99.90
18882;DHT22;9573;50.948;11.600;2023-07-31T05:33:47;17.20;99.90
18882;DHT22;9573;50.948;11.600;2023-07-31T05:36:15;17.30;99.90
18882;DHT22;9573;50.948;11.600;2023-07-31T05:38:42;17.40;99.90
18882;DHT22;9573;50.948;11.600;2023-07-31T05:41:10;17.50;99.90
18882;DHT22;9573;50.948;11.600;2023-07-31T05:43:39;17.60;99.90
18882;DHT22;9573;50.948;11.600;2023-07-31T05:46:06;17.60;99.90
18882;DHT22;9573;50.948;11.600;2023-07-31T05:48:34;17.60;99.90
18882;DHT22;9573;50.948;11.600;2023-07-31T05:51:02;17.60;99.90
18882;DHT22;9573;50.948;11.600;2023-07-31T05:53:29;17.60;99.90
18882;DHT22;9573;50.948;11.600;2023-07-31T05:55:56;17.60;99.90
18882;DHT22;9573;50.948;11.600;2023-07-31T05:58:23;17.60;99.90
18882;DHT22;9573;50.948;11.600;2023-07-31T06:00:52;17.50;99.90
18882;DHT22;9573;50.948;11.600;2023-07-31T06:03:19;17.50;99.90
18882;DHT22;9573;50.948;11.600;2023-07-31T06:05:46;17.50;99.90
18882;DHT22;9573;50.948;11.600;2023-07-31T06:08:13;17.60;99.90
18882;DHT22;9573;50.948;11.600;2023-07-31T06:10:40;17.60;99.90
18882;DHT22;9573;50.948;11.600;2023-07-31T06:13:07;17.60;99.90
18882;DHT22;9573;50.948;11.600;2023-07-31T06:15:34;17.70;99.90
18882;DHT22;9573;50.948;11.600;2023-07-31T06:18:03;17.70;99.90
18882;DHT22;9573;50.948;11.600;2023-07-31T06:20:33;17.80;99.90
18882;DHT22;9573;50.948;11.600;2023-07-31T06:23:00;17.90;99.90
18882;DHT22;9573;50.948;11.600;2023-07-31T06:25:28;18.10;99.90
18882;DHT22;9573;50.948;11.600;2023-07-31T06:27:56;18.20;99.90
18882;DHT22;9573;50.948;11.600;2023-07-31T06:30:23;18.40;99.90
18882;DHT22;9573;50.948;11.600;2023-07-31T06:32:50;18.50;99.90
18882;DHT22;9573;50.948;11.600;2023-07-31T06:35:19;18.60;99.90
18882;DHT22;9573;50.948;11.600;2023-07-31T06:37:46;18.80;99.90
18882;DHT22;9573;50.948;11.600;2023-07-31T06:40:13;18.90;99.90
18882;DHT22;9573;50.948;11.600;2023-07-31T06:42:40;18.90;99.90
18882;DHT22;9573;50.948;11.600;2023-07-31T06:45:08;18.90;99.90
18882;DHT22;9573;50.948;11.600;2023-07-31T06:47:36;18.90;99.90
18882;DHT22;9573;50.948;11.600;2023-07-31T06:50:04;18.90;99.90
18882;DHT22;9573;50.948;11.600;2023-07-31T06:52:33;19.00;99.90
18882;DHT22;9573;50.948;11.600;2023-07-31T06:55:03;19.00;99.90
18882;DHT22;9573;50.948;11.600;2023-07-31T06:57:36;18.90;99.90
18882;DHT22;9573;50.948;11.600;2023-07-31T07:00:04;19.00;99.90
18882;DHT22;9573;50.948;11.600;2023-07-31T07:02:32;19.00;99.90
18882;DHT22;9573;50.948;11.600;2023-07-31T07:05:00;19.00;99.90
18882;DHT22;9573;50.948;11.600;2023-07-31T07:07:27;19.00;99.90
18882;DHT22;9573;50.948;11.600;2023-07-31T07:09:55;18.90;99.90
18882;DHT22;9573;50.948;11.600;2023-07-31T07:12:22;18.90;99.90
18882;DHT22;9573;50.948;11.600;2023-07-31T07:14:49;18.80;99.90
18882;DHT22;9573;50.948;11.600;2023-07-31T07:17:18;18.90;99.90
18882;DHT22;9573;50.948;11.600;2023-07-31T07:19:45;18.90;99.90
18882;DHT22;9573;50.948;11.600;2023-07-31T07:22:12;18.90;99.90
18882;DHT22;9573;50.948;11.600;2023-07-31T07:24:40;18.90;99.90
18882;DHT22;9573;50.948;11.600;2023-07-31T07:27:08;18.90;99.90
18882;DHT22;9573;50.948;11.600;2023-07-31T07:29:35;18.90;99.90
18882;DHT22;9573;50.948;11.600;2023-07-31T07:32:03;19.00;99.90
18882;DHT22;9573;50.948;11.600;2023-07-31T07:34:30;19.10;99.90
18882;DHT22;9573;50.948;11.600;2023-07-31T07:36:57;19.20;99.90
18882;DHT22;9573;50.948;11.600;2023-07-31T07:39:24;19.30;99.90
18882;DHT22;9573;50.948;11.600;2023-07-31T07:41:51;19.50;99.90
18882;DHT22;9573;50.948;11.600;2023-07-31T07:44:21;19.60;99.90
18882;DHT22;9573;50.948;11.600;2023-07-31T07:46:48;19.70;99.90
18882;DHT22;9573;50.948;11.600;2023-07-31T07:49:15;19.70;99.90
18882;DHT22;9573;50.948;11.600;2023-07-31T07:51:42;19.70;99.90
18882;DHT22;9573;50.948;11.600;2023-07-31T07:54:09;19.80;99.90
18882;DHT22;9573;50.948;11.600;2023-07-31T07:56:36;19.90;99.90
18882;DHT22;9573;50.948;11.600;2023-07-31T07:59:03;19.90;99.90
18882;DHT22;9573;50.948;11.600;2023-07-31T08:01:32;19.90;99.90
18882;DHT22;9573;50.948;11.600;2023-07-31T08:03:59;20.10;99.90
18882;DHT22;9573;50.948;11.600;2023-07-31T08:06:26;20.10;99.90
18882;DHT22;9573;50.948;11.600;2023-07-31T08:08:55;20.20;99.90
18882;DHT22;9573;50.948;11.600;2023-07-31T08:11:22;20.30;99.90
18882;DHT22;9573;50.948;11.600;2023-07-31T08:13:49;20.50;99.90
18882;DHT22;9573;50.948;11.600;2023-07-31T08:16:16;20.50;99.90
18882;DHT22;9573;50.948;11.600;2023-07-31T08:18:45;20.50;99.90
18882;DHT22;9573;50.948;11.600;2023-07-31T08:21:12;20.60;99.90
18882;DHT22;9573;50.948;11.600;2023-07-31T08:23:39;20.50;99.90
18882;DHT22;9573;50.948;11.600;2023-07-31T08:26:06;20.80;99.90
18882;DHT22;9573;50.948;11.600;2023-07-31T08:28:33;21.00;99.90
18882;DHT22;9573;50.948;11.600;2023-07-31T08:31:02;21.10;99.90
18882;DHT22;9573;50.948;11.600;2023-07-31T08:33:29;21.30;99.90
18882;DHT22;9573;50.948;11.600;2023-07-31T08:35:57;21.50;99.90
18882;DHT22;9573;50.948;11.600;2023-07-31T08:38:26;21.50;99.90
18882;DHT22;9573;50.948;11.600;2023-07-31T08:40:56;21.70;99.90
18882;DHT22;9573;50.948;11.600;2023-07-31T08:43:26;21.60;99.90
18882;DHT22;9573;50.948;11.600;2023-07-31T08:45:53;21.80;99.90
18882;DHT22;9573;50.948;11.600;2023-07-31T08:48:23;21.90;99.90
18882;DHT22;9573;50.948;11.600;2023-07-31T08:50:51;22.10;99.90
18882;DHT22;9573;50.948;11.600;2023-07-31T08:53:19;22.30;99.90
18882;DHT22;9573;50.948;11.600;2023-07-31T08:55:47;22.30;99.90
18882;DHT22;9573;50.948;11.600;2023-07-31T08:58:15;22.50;99.90
18882;DHT22;9573;50.948;11.600;2023-07-31T09:00:46;22.50;99.90
18882;DHT22;9573;50.948;11.600;2023-07-31T09:03:14;22.50;99.90
18882;DHT22;9573;50.948;11.600;2023-07-31T09:05:43;22.40;99.90
18882;DHT22;9573;50.948;11.600;2023-07-31T09:08:13;22.10;99.90
18882;DHT22;9573;50.948;11.600;2023-07-31T09:10:43;21.70;99.90
18882;DHT22;9573;50.948;11.600;2023-07-31T09:13:11;21.30;99.90
18882;DHT22;9573;50.948;11.600;2023-07-31T09:15:39;21.00;99.90
18882;DHT22;9573;50.948;11.600;2023-07-31T09:18:08;20.90;99.90
18882;DHT22;9573;50.948;11.600;2023-07-31T09:20:35;21.00;99.90
18882;DHT22;9573;50.948;11.600;2023-07-31T09:23:07;21.30;99.90
18882;DHT22;9573;50.948;11.600;2023-07-31T09:25:36;21.50;99.90
18882;DHT22;9573;50.948;11.600;2023-07-31T09:28:06;21.50;99.90
18882;DHT22;9573;50.948;11.600;2023-07-31T09:30:46;21.30;99.90
18882;DHT22;9573;50.948;11.600;2023-07-31T09:33:14;21.50;99.90
18882;DHT22;9573;50.948;11.600;2023-07-31T09:35:41;21.60;99.90
18882;DHT22;9573;50.948;11.600;2023-07-31T09:38:10;21.80;99.90
18882;DHT22;9573;50.948;11.600;2023-07-31T09:40:39;22.00;99.90
18882;DHT22;9573;50.948;11.600;2023-07-31T09:43:10;22.40;99.90
18882;DHT22;9573;50.948;11.600;2023-07-31T09:45:39;23.20;99.90
18882;DHT22;9573;50.948;11.600;2023-07-31T09:48:07;23.70;99.90
18882;DHT22;9573;50.948;11.600;2023-07-31T09:50:37;24.10;99.90
18882;DHT22;9573;50.948;11.600;2023-07-31T09:53:06;24.40;99.90
18882;DHT22;9573;50.948;11.600;2023-07-31T09:55:34;25.10;99.90
18882;DHT22;9573;50.948;11.600;2023-07-31T09:58:04;25.40;99.90
18882;DHT22;9573;50.948;11.600;2023-07-31T10:00:34;25.60;99.90
18882;DHT22;9573;50.948;11.600;2023-07-31T10:03:04;25.50;99.90
18882;DHT22;9573;50.948;11.600;2023-07-31T10:05:35;25.30;99.90
18882;DHT22;9573;50.948;11.600;2023-07-31T10:08:03;25.30;99.90
18882;DHT22;9573;50.948;11.600;2023-07-31T10:10:32;25.40;99.90
18882;DHT22;9573;50.948;11.600;2023-07-31T10:12:59;24.90;99.90
18882;DHT22;9573;50.948;11.600;2023-07-31T10:15:28;24.50;99.90
18882;DHT22;9573;50.948;11.600;2023-07-31T10:17:58;24.30;99.90
18882;DHT22;9573;50.948;11.600;2023-07-31T10:20:26;24.30;99.90
18882;DHT22;9573;50.948;11.600;2023-07-31T10:22:55;24.10;99.90
18882;DHT22;9573;50.948;11.600;2023-07-31T10:25:24;23.90;99.90
18882;DHT22;9573;50.948;11.600;2023-07-31T10:27:52;23.90;99.90
18882;DHT22;9573;50.948;11.600;2023-07-31T10:30:23;23.90;99.90
18882;DHT22;9573;50.948;11.600;2023-07-31T10:32:53;24.20;99.90
18882;DHT22;9573;50.948;11.600;2023-07-31T10:35:22;24.70;99.90
18882;DHT22;9573;50.948;11.600;2023-07-31T10:37:49;25.10;99.90
18882;DHT22;9573;50.948;11.600;2023-07-31T10:40:17;25.40;99.90
18882;DHT22;9573;50.948;11.600;2023-07-31T10:42:48;25.40;99.90
18882;DHT22;9573;50.948;11.600;2023-07-31T10:45:25;25.00;99.90
18882;DHT22;9573;50.948;11.600;2023-07-31T10:47:58;24.90;99.90
18882;DHT22;9573;50.948;11.600;2023-07-31T10:50:29;24.80;99.90
18882;DHT22;9573;50.948;11.600;2023-07-31T10:52:58;24.90;99.90
18882;DHT22;9573;50.948;11.600;2023-07-31T10:55:28;25.00;99.90
18882;DHT22;9573;50.948;11.600;2023-07-31T10:57:58;25.30;99.90
18882;DHT22;9573;50.948;11.600;2023-07-31T11:00:32;25.70;99.90
18882;DHT22;9573;50.948;11.600;2023-07-31T11:03:03;25.90;99.90
18882;DHT22;9573;50.948;11.600;2023-07-31T11:05:49;25.70;99.90
18882;DHT22;9573;50.948;11.600;2023-07-31T11:08:20;25.40;99.90
18882;DHT22;9573;50.948;11.600;2023-07-31T11:10:50;25.00;99.90
18882;DHT22;9573;50.948;11.600;2023-07-31T11:13:18;24.70;99.90
18882;DHT22;9573;50.948;11.600;2023-07-31T11:15:45;24.50;99.90
18882;DHT22;9573;50.948;11.600;2023-07-31T11:18:12;24.30;99.90
18882;DHT22;9573;50.948;11.600;2023-07-31T11:20:39;24.20;99.90
18882;DHT22;9573;50.948;11.600;2023-07-31T11:23:09;24.20;99.90
18882;DHT22;9573;50.948;11.600;2023-07-31T11:25:37;24.20;99.90
18882;DHT22;9573;50.948;11.600;2023-07-31T11:28:08;24.00;99.90
18882;DHT22;9573;50.948;11.600;2023-07-31T11:30:36;23.70;99.90
18882;DHT22;9573;50.948;11.600;2023-07-31T11:33:04;23.70;99.90
18882;DHT22;9573;50.948;11.600;2023-07-31T11:35:33;23.60;99.90
18882;DHT22;9573;50.948;11.600;2023-07-31T11:38:01;23.50;99.90
18882;DHT22;9573;50.948;11.600;2023-07-31T11:40:29;23.80;99.90
18882;DHT22;9573;50.948;11.600;2023-07-31T11:42:57;24.30;99.90
18882;DHT22;9573;50.948;11.600;2023-07-31T11:45:26;24.60;99.90
18882;DHT22;9573;50.948;11.600;2023-07-31T11:47:54;24.90;99.90
18882;DHT22;9573;50.948;11.600;2023-07-31T11:50:23;24.80;99.90
18882;DHT22;9573;50.948;11.600;2023-07-31T11:52:54;24.60;99.90
18882;DHT22;9573;50.948;11.600;2023-07-31T11:55:24;24.50;99.90
18882;DHT22;9573;50.948;11.600;2023-07-31T11:57:55;24.40;99.90
18882;DHT22;9573;50.948;11.600;2023-07-31T12:00:24;24.50;99.90
18882;DHT22;9573;50.948;11.600;2023-07-31T12:02:53;24.70;99.90
18882;DHT22;9573;50.948;11.600;2023-07-31T12:05:22;25.00;99.90
18882;DHT22;9573;50.948;11.600;2023-07-31T12:07:50;25.00;99.90
18882;DHT22;9573;50.948;11.600;2023-07-31T12:10:25;25.20;99.90
18882;DHT22;9573;50.948;11.600;2023-07-31T12:13:03;25.40;99.90
18882;DHT22;9573;50.948;11.600;2023-07-31T12:15:35;25.90;99.90
18882;DHT22;9573;50.948;11.600;2023-07-31T12:18:09;25.80;99.90
18882;DHT22;9573;50.948;11.600;2023-07-31T12:20:41;25.90;99.90
18882;DHT22;9573;50.948;11.600;2023-07-31T12:23:17;25.90;99.90
18882;DHT22;9573;50.948;11.600;2023-07-31T12:26:00;25.80;99.90
18882;DHT22;9573;50.948;11.600;2023-07-31T12:28:29;25.80;99.90
18882;DHT22;9573;50.948;11.600;2023-07-31T12:30:57;26.10;99.90
18882;DHT22;9573;50.948;11.600;2023-07-31T12:33:31;26.40;99.90
18882;DHT22;9573;50.948;11.600;2023-07-31T12:36:00;26.90;99.90
18882;DHT22;9573;50.948;11.600;2023-07-31T12:38:29;27.00;99.90
18882;DHT22;9573;50.948;11.600;2023-07-31T12:40:57;27.20;99.90
18882;DHT22;9573;50.948;11.600;2023-07-31T12:43:24;26.70;99.90
18882;DHT22;9573;50.948;11.600;2023-07-31T12:45:54;26.20;99.90
18882;DHT22;9573;50.948;11.600;2023-07-31T12:48:21;26.00;99.90
18882;DHT22;9573;50.948;11.600;2023-07-31T12:50:48;25.50;99.90
18882;DHT22;9573;50.948;11.600;2023-07-31T12:53:16;25.60;99.90
18882;DHT22;9573;50.948;11.600;2023-07-31T12:55:43;25.70;99.90
18882;DHT22;9573;50.948;11.600;2023-07-31T12:58:10;25.70;99.90
18882;DHT22;9573;50.948;11.600;2023-07-31T13:00:37;26.10;99.90
18882;DHT22;9573;50.948;11.600;2023-07-31T13:03:06;26.60;99.90
18882;DHT22;9573;50.948;11.600;2023-07-31T13:05:33;27.50;99.90
18882;DHT22;9573;50.948;11.600;2023-07-31T13:08:00;28.10;99.90
18882;DHT22;9573;50.948;11.600;2023-07-31T13:10:27;28.00;99.90
18882;DHT22;9573;50.948;11.600;2023-07-31T13:12:55;27.50;99.90
18882;DHT22;9573;50.948;11.600;2023-07-31T13:15:23;27.00;99.90
18882;DHT22;9573;50.948;11.600;2023-07-31T13:17:50;26.50;99.90
18882;DHT22;9573;50.948;11.600;2023-07-31T13:20:18;26.30;99.90
18882;DHT22;9573;50.948;11.600;2023-07-31T13:22:45;26.00;99.90
18882;DHT22;9573;50.948;11.600;2023-07-31T13:25:12;25.60;99.90
18882;DHT22;9573;50.948;11.600;2023-07-31T13:27:40;25.30;99.90
18882;DHT22;9573;50.948;11.600;2023-07-31T13:30:07;25.30;99.90
18882;DHT22;9573;50.948;11.600;2023-07-31T13:32:35;25.10;99.90
18882;DHT22;9573;50.948;11.600;2023-07-31T13:35:05;25.10;99.90
18882;DHT22;9573;50.948;11.600;2023-07-31T13:37:33;25.10;99.90
18882;DHT22;9573;50.948;11.600;2023-07-31T13:40:01;25.10;99.90
18882;DHT22;9573;50.948;11.600;2023-07-31T13:42:30;24.90;99.90
18882;DHT22;9573;50.948;11.600;2023-07-31T13:44:57;24.70;99.90
18882;DHT22;9573;50.948;11.600;2023-07-31T13:47:24;24.50;99.90
18882;DHT22;9573;50.948;11.600;2023-07-31T13:49:51;24.40;99.90
18882;DHT22;9573;50.948;11.600;2023-07-31T13:52:18;24.50;99.90
18882;DHT22;9573;50.948;11.600;2023-07-31T13:54:47;24.70;99.90
18882;DHT22;9573;50.948;11.600;2023-07-31T13:57:14;24.90;99.90
18882;DHT22;9573;50.948;11.600;2023-07-31T13:59:41;25.20;99.90
18882;DHT22;9573;50.948;11.600;2023-07-31T14:02:08;25.20;99.90
18882;DHT22;9573;50.948;11.600;2023-07-31T14:04:35;24.90;99.90
18882;DHT22;9573;50.948;11.600;2023-07-31T14:07:03;24.50;99.90
18882;DHT22;9573;50.948;11.600;2023-07-31T14:09:30;24.40;99.90
18882;DHT22;9573;50.948;11.600;2023-07-31T14:11:59;24.40;99.90
18882;DHT22;9573;50.948;11.600;2023-07-31T14:14:26;24.50;99.90
18882;DHT22;9573;50.948;11.600;2023-07-31T14:16:53;24.60;99.90
18882;DHT22;9573;50.948;11.600;2023-07-31T14:19:20;24.60;99.90
18882;DHT22;9573;50.948;11.600;2023-07-31T14:21:47;24.60;99.90
18882;DHT22;9573;50.948;11.600;2023-07-31T14:24:14;24.50;99.90
18882;DHT22;9573;50.948;11.600;2023-07-31T14:26:41;24.70;99.90
18882;DHT22;9573;50.948;11.600;2023-07-31T14:29:09;24.80;99.90
18882;DHT22;9573;50.948;11.600;2023-07-31T14:31:36;24.80;99.90
18882;DHT22;9573;50.948;11.600;2023-07-31T14:34:03;24.90;99.90
18882;DHT22;9573;50.948;11.600;2023-07-31T14:36:31;24.70;99.90
18882;DHT22;9573;50.948;11.600;2023-07-31T14:38:58;24.70;99.90
18882;DHT22;9573;50.948;11.600;2023-07-31T14:41:25;24.80;99.90
18882;DHT22;9573;50.948;11.600;2023-07-31T14:43:52;24.80;99.90
18882;DHT22;9573;50.948;11.600;2023-07-31T14:46:20;24.90;99.90
18882;DHT22;9573;50.948;11.600;2023-07-31T14:48:47;25.00;99.90
18882;DHT22;9573;50.948;11.600;2023-07-31T14:51:14;25.20;99.90
18882;DHT22;9573;50.948;11.600;2023-07-31T14:53:43;25.20;99.90
18882;DHT22;9573;50.948;11.600;2023-07-31T14:56:10;25.00;99.90
18882;DHT22;9573;50.948;11.600;2023-07-31T14:58:37;24.70;99.90
18882;DHT22;9573;50.948;11.600;2023-07-31T15:01:04;24.50;99.90
18882;DHT22;9573;50.948;11.600;2023-07-31T15:03:33;24.40;99.90
18882;DHT22;9573;50.948;11.600;2023-07-31T15:06:00;24.50;99.90
18882;DHT22;9573;50.948;11.600;2023-07-31T15:08:27;24.30;99.90
18882;DHT22;9573;50.948;11.600;2023-07-31T15:10:54;24.30;99.90
18882;DHT22;9573;50.948;11.600;2023-07-31T15:13:23;24.20;99.90
18882;DHT22;9573;50.948;11.600;2023-07-31T15:15:50;24.00;99.90
18882;DHT22;9573;50.948;11.600;2023-07-31T15:18:17;24.00;99.90
18882;DHT22;9573;50.948;11.600;2023-07-31T15:20:46;23.70;99.90
18882;DHT22;9573;50.948;11.600;2023-07-31T15:23:13;23.60;99.90
18882;DHT22;9573;50.948;11.600;2023-07-31T15:25:40;23.40;99.90
18882;DHT22;9573;50.948;11.600;2023-07-31T15:28:08;23.30;99.90
18882;DHT22;9573;50.948;11.600;2023-07-31T15:30:36;23.20;99.90
18882;DHT22;9573;50.948;11.600;2023-07-31T15:33:03;23.20;99.90
18882;DHT22;9573;50.948;11.600;2023-07-31T15:35:30;23.10;99.90